createdAt,value
2022-11-29T00:01:42.205Z,21.20
2022-11-29T00:04:08.643Z,20.05
2022-11-29T00:06:35.463Z,19.25
2022-11-29T00:09:04.294Z,22.13
2022-11-29T00:11:51.412Z,21.00
2022-11-29T00:14:18.519Z,21.67
2022-11-29T00:16:44.933Z,21.52
2022-11-29T00:19:11.994Z,21.15
2022-11-29T00:21:38.764Z,20.00
2022-11-29T00:24:05.234Z,20.10
2022-11-29T00:26:31.615Z,20.23
2022-11-29T00:28:57.995Z,20.17
2022-11-29T00:31:26.087Z,21.63
2022-11-29T00:33:52.889Z,20.83
2022-11-29T00:36:19.784Z,20.05
2022-11-29T00:38:46.118Z,21.33
2022-11-29T00:41:12.597Z,19.45
2022-11-29T00:43:39.606Z,18.63
2022-11-29T00:46:06.719Z,20.40
2022-11-29T00:48:33.576Z,19.52
2022-11-29T00:50:59.912Z,20.77
2022-11-29T00:53:26.271Z,21.20
2022-11-29T00:55:52.949Z,20.48
2022-11-29T00:58:19.883Z,19.77
2022-11-29T01:00:46.418Z,21.50
2022-11-29T01:03:13.291Z,24.85
2022-11-29T01:05:40.298Z,19.48
2022-11-29T01:08:06.752Z,19.10
2022-11-29T01:10:33.489Z,21.48
2022-11-29T01:12:59.901Z,23.00
2022-11-29T01:15:26.317Z,23.13
2022-11-29T01:17:53.429Z,23.00
2022-11-29T01:20:19.954Z,22.02
2022-11-29T01:22:46.421Z,24.77
2022-11-29T01:25:13.281Z,21.80
2022-11-29T01:27:39.692Z,23.23
2022-11-29T01:30:06.986Z,21.67
2022-11-29T01:32:33.506Z,24.58
2022-11-29T01:34:59.853Z,25.55
2022-11-29T01:37:28.297Z,23.65
2022-11-29T01:39:54.667Z,22.35
2022-11-29T01:42:21.011Z,23.23
2022-11-29T01:44:50.408Z,23.50
2022-11-29T01:47:17.803Z,25.65
2022-11-29T01:49:45.278Z,21.23
2022-11-29T01:52:13.933Z,24.23
2022-11-29T01:54:48.180Z,24.88
2022-11-29T01:57:15.299Z,23.73
2022-11-29T01:59:48.327Z,25.75
2022-11-29T02:02:16.849Z,22.30
2022-11-29T02:04:45.467Z,24.85
2022-11-29T02:07:11.933Z,24.13
2022-11-29T02:09:38.603Z,22.80
2022-11-29T02:12:05.002Z,27.65
2022-11-29T02:14:37.434Z,25.25
2022-11-29T02:17:03.700Z,22.55
2022-11-29T02:19:32.990Z,24.13
2022-11-29T02:22:04.101Z,24.02
2022-11-29T02:24:36.482Z,24.95
2022-11-29T02:27:02.831Z,25.08
2022-11-29T02:29:29.233Z,29.45
2022-11-29T02:32:05.603Z,23.73
2022-11-29T02:34:45.192Z,24.73
2022-11-29T02:37:30.190Z,23.95
2022-11-29T02:40:15.584Z,23.88
2022-11-29T02:42:56.741Z,17.30
2022-11-29T02:45:23.485Z,27.10
2022-11-29T02:48:16.769Z,29.50
2022-11-29T02:50:56.992Z,24.95
2022-11-29T02:53:29.382Z,28.25
2022-11-29T02:56:14.500Z,25.48
2022-11-29T02:58:47.415Z,27.50
2022-11-29T03:01:20.992Z,28.73
2022-11-29T03:04:05.887Z,26.48
2022-11-29T03:06:32.251Z,28.48
2022-11-29T03:09:04.193Z,29.80
2022-11-29T03:11:52.061Z,28.48
2022-11-29T03:14:26.435Z,25.50
2022-11-29T03:16:58.698Z,27.13
2022-11-29T03:19:51.398Z,26.13
2022-11-29T03:22:20.834Z,29.77
2022-11-29T03:24:47.315Z,26.33
2022-11-29T03:27:16.507Z,23.42
2022-11-29T03:29:50.556Z,23.40
2022-11-29T03:32:27.023Z,29.92
2022-11-29T03:35:05.582Z,25.67
2022-11-29T03:37:52.184Z,25.67
2022-11-29T03:40:26.355Z,30.08
2022-11-29T03:42:58.881Z,24.85
2022-11-29T03:45:28.856Z,31.65
2022-11-29T03:48:10.240Z,25.35
2022-11-29T03:50:38.954Z,27.77
2022-11-29T03:53:14.607Z,26.98
2022-11-29T03:55:54.683Z,29.45
2022-11-29T03:58:32.259Z,26.88
2022-11-29T04:01:04.615Z,25.35
2022-11-29T04:03:30.989Z,27.42
2022-11-29T04:06:20.629Z,22.50
2022-11-29T04:08:57.542Z,24.70
2022-11-29T04:11:27.076Z,26.60
2022-11-29T04:13:53.419Z,26.95
2022-11-29T04:16:22.945Z,25.08
2022-11-29T04:19:04.596Z,25.65
2022-11-29T04:21:30.916Z,28.42
2022-11-29T04:24:13.749Z,28.60
2022-11-29T04:26:49.381Z,26.23
2022-11-29T04:29:18.931Z,24.45
2022-11-29T04:31:51.219Z,25.23
2022-11-29T04:34:26.671Z,29.02
2022-11-29T04:36:59.160Z,28.38
2022-11-29T04:39:44.112Z,28.85
2022-11-29T04:42:10.589Z,25.58
2022-11-29T04:44:38.211Z,29.10
2022-11-29T04:47:19.790Z,26.85
2022-11-29T04:49:52.329Z,26.70
2022-11-29T04:52:18.676Z,28.50
2022-11-29T04:54:55.432Z,27.15
2022-11-29T04:57:23.130Z,26.20
2022-11-29T05:00:09.818Z,26.10
2022-11-29T05:02:36.146Z,30.88
2022-11-29T05:05:14.781Z,27.40
2022-11-29T05:07:41.152Z,27.42
2022-11-29T05:10:43.281Z,25.38
2022-11-29T05:13:13.401Z,25.67
2022-11-29T05:15:39.759Z,25.83
2022-11-29T05:18:23.874Z,29.15
2022-11-29T05:21:09.145Z,29.20
2022-11-29T05:23:48.423Z,30.52
2022-11-29T05:26:14.792Z,26.63
2022-11-29T05:28:41.073Z,28.83
2022-11-29T05:31:16.616Z,27.92
2022-11-29T05:36:12.113Z,27.00
2022-11-29T05:38:52.401Z,28.45
2022-11-29T05:41:37.503Z,28.95
2022-11-29T05:44:09.878Z,31.40
2022-11-29T05:46:56.992Z,29.42
2022-11-29T05:49:32.578Z,27.23
2022-11-29T05:54:30.980Z,26.92
2022-11-29T05:57:06.094Z,26.23
2022-11-29T05:59:34.355Z,30.58
2022-11-29T06:02:13.041Z,26.88
2022-11-29T06:04:39.383Z,29.30
2022-11-29T06:07:17.873Z,28.95
2022-11-29T06:10:02.018Z,32.17
2022-11-29T06:12:31.306Z,27.90
2022-11-29T06:15:06.494Z,29.38
2022-11-29T06:17:52.359Z,26.65
2022-11-29T06:23:04.294Z,28.38
2022-11-29T06:25:41.865Z,23.77
2022-11-29T06:28:27.115Z,26.45
2022-11-29T06:31:06.382Z,19.95
2022-11-29T06:33:35.869Z,24.40
2022-11-29T06:36:11.612Z,25.15
2022-11-29T06:38:38.045Z,22.77
2022-11-29T06:41:04.638Z,26.40
2022-11-29T06:43:31.247Z,23.73
2022-11-29T06:46:03.221Z,26.27
2022-11-29T06:48:34.474Z,30.42
2022-11-29T06:51:08.453Z,24.25
2022-11-29T06:53:48.643Z,25.90
2022-11-29T06:56:33.803Z,23.10
2022-11-29T06:59:19.033Z,27.40
2022-11-29T07:01:45.852Z,26.50
2022-11-29T07:04:31.183Z,28.75
2022-11-29T07:06:57.643Z,25.20
2022-11-29T07:09:27.974Z,24.25
2022-11-29T07:11:54.523Z,23.17
2022-11-29T07:14:20.978Z,24.70
2022-11-29T07:17:01.713Z,26.23
2022-11-29T07:19:41.149Z,24.77
2022-11-29T07:22:26.343Z,24.92
2022-11-29T07:24:58.672Z,27.33
2022-11-29T07:27:33.572Z,26.00
2022-11-29T07:29:59.919Z,25.35
2022-11-29T07:32:50.334Z,20.30
2022-11-29T07:35:22.042Z,20.10
2022-11-29T07:38:11.814Z,23.08
2022-11-29T07:40:42.660Z,22.08
2022-11-29T07:43:27.831Z,20.38
2022-11-29T07:45:54.971Z,19.37
2022-11-29T07:48:21.361Z,22.38
2022-11-29T07:50:48.277Z,29.42
2022-11-29T07:53:18.385Z,22.75
2022-11-29T07:55:45.161Z,22.23
2022-11-29T07:58:12.802Z,21.80
2022-11-29T08:00:39.718Z,23.88
2022-11-29T08:03:06.063Z,22.45
2022-11-29T08:05:32.505Z,22.83
2022-11-29T08:07:59.225Z,27.23
2022-11-29T08:10:25.654Z,30.00
2022-11-29T08:12:52.206Z,24.85
2022-11-29T08:15:19.459Z,27.27
2022-11-29T08:17:46.254Z,27.58
2022-11-29T08:20:13.479Z,22.65
2022-11-29T08:22:39.964Z,21.90
2022-11-29T08:25:07.345Z,21.38
2022-11-29T08:27:34.280Z,23.08
2022-11-29T08:30:00.630Z,21.98
2022-11-29T08:32:27.557Z,21.50
2022-11-29T08:34:53.910Z,20.02
2022-11-29T08:37:20.276Z,22.17
2022-11-29T08:39:46.625Z,20.48
2022-11-29T08:42:13.052Z,22.70
2022-11-29T08:44:40.635Z,22.67
2022-11-29T08:47:25.545Z,23.75
2022-11-29T08:50:04.115Z,20.02
2022-11-29T08:52:49.796Z,23.52
2022-11-29T08:55:16.615Z,19.50
2022-11-29T08:57:43.219Z,22.20
2022-11-29T09:00:09.895Z,20.23
2022-11-29T09:02:36.733Z,19.27
2022-11-29T09:05:03.680Z,19.70
2022-11-29T09:07:30.099Z,18.25
2022-11-29T09:09:56.608Z,19.50
2022-11-29T09:12:22.976Z,16.23
2022-11-29T09:14:49.465Z,18.85
2022-11-29T09:17:15.839Z,16.73
2022-11-29T09:19:42.338Z,27.40
2022-11-29T09:22:08.722Z,16.05
2022-11-29T09:24:35.013Z,19.35
2022-11-29T09:27:01.515Z,20.77
2022-11-29T09:29:27.893Z,15.25
2022-11-29T09:31:54.846Z,16.00
2022-11-29T09:34:21.317Z,18.92
2022-11-29T09:36:48.131Z,17.70
2022-11-29T09:39:14.591Z,16.17
2022-11-29T09:42:00.355Z,16.13
2022-11-29T09:44:29.427Z,15.57
2022-11-29T09:46:58.733Z,12.90
2022-11-29T09:49:31.549Z,12.60
2022-11-29T09:52:16.630Z,13.75
2022-11-29T09:55:01.969Z,13.10
2022-11-29T09:57:29.048Z,13.75
2022-11-29T09:59:57.472Z,15.45
2022-11-29T10:02:36.744Z,12.32
2022-11-29T10:05:08.531Z,15.73
2022-11-29T10:07:42.905Z,12.35
2022-11-29T10:10:15.074Z,13.57
2022-11-29T10:12:47.752Z,13.27
2022-11-29T10:15:19.821Z,9.95
2022-11-29T10:17:49.273Z,12.68
2022-11-29T10:20:15.560Z,13.48
2022-11-29T10:22:49.530Z,11.88
2022-11-29T10:25:19.165Z,11.30
2022-11-29T10:27:45.501Z,11.05
2022-11-29T10:30:13.279Z,12.95
2022-11-29T10:32:39.943Z,12.57
2022-11-29T10:35:12.529Z,10.73
2022-11-29T10:37:39.190Z,11.23
2022-11-29T10:40:10.133Z,10.25
2022-11-29T10:42:50.040Z,11.80
2022-11-29T10:45:25.990Z,12.38
2022-11-29T10:47:53.438Z,9.05
2022-11-29T10:50:22.350Z,13.40
2022-11-29T10:52:48.725Z,11.27
2022-11-29T10:55:16.017Z,11.25
2022-11-29T10:58:01.249Z,10.73
2022-11-29T11:00:28.276Z,10.85
2022-11-29T11:02:54.662Z,9.50
2022-11-29T11:05:24.954Z,9.40
2022-11-29T11:07:57.482Z,9.07
2022-11-29T11:10:27.134Z,10.70
2022-11-29T11:13:08.086Z,11.40
2022-11-29T11:15:34.460Z,9.85
2022-11-29T11:18:04.781Z,9.48
2022-11-29T11:20:39.734Z,10.63
2022-11-29T11:23:26.798Z,7.03
2022-11-29T11:25:59.395Z,9.07
2022-11-29T11:28:27.069Z,8.25
2022-11-29T11:31:04.976Z,8.80
2022-11-29T11:33:31.442Z,9.55
2022-11-29T11:36:06.921Z,9.10
2022-11-29T11:38:34.342Z,7.90
2022-11-29T11:41:05.275Z,6.97
2022-11-29T11:43:32.090Z,8.20
2022-11-29T11:45:58.507Z,7.05
2022-11-29T11:48:25.055Z,10.32
2022-11-29T11:50:53.083Z,7.00
2022-11-29T11:53:19.736Z,8.77
2022-11-29T11:55:54.183Z,7.75
2022-11-29T11:58:28.297Z,9.23
2022-11-29T12:01:03.312Z,8.57
2022-11-29T12:03:30.706Z,10.50
2022-11-29T12:06:11.475Z,8.65
2022-11-29T12:08:38.243Z,8.13
2022-11-29T12:11:07.745Z,7.78
2022-11-29T12:13:36.004Z,9.43
2022-11-29T12:16:05.835Z,8.70
2022-11-29T12:18:35.294Z,7.88
2022-11-29T12:21:01.636Z,9.00
2022-11-29T12:23:30.974Z,8.95
2022-11-29T12:26:05.527Z,8.93
2022-11-29T12:28:32.874Z,17.23
2022-11-29T12:31:11.578Z,8.40
2022-11-29T12:33:56.551Z,7.60
2022-11-29T12:36:38.100Z,8.38
2022-11-29T12:39:13.700Z,7.72
2022-11-29T12:44:20.440Z,11.30
2022-11-29T12:47:34.591Z,7.40
2022-11-29T12:50:05.238Z,7.88
2022-11-29T12:52:34.680Z,8.48
2022-11-29T12:55:18.026Z,8.73
2022-11-29T12:57:47.122Z,8.15
2022-11-29T13:00:14.162Z,8.25
2022-11-29T13:02:52.712Z,10.10
2022-11-29T13:05:19.105Z,7.47
2022-11-29T13:07:51.575Z,8.93
2022-11-29T13:10:32.608Z,7.88
2022-11-29T13:13:01.999Z,7.82
2022-11-29T13:15:31.371Z,9.30
2022-11-29T13:17:57.827Z,7.32
2022-11-29T13:20:24.152Z,8.95
2022-11-29T13:22:57.457Z,9.63
2022-11-29T13:25:26.693Z,8.73
2022-11-29T13:28:04.648Z,6.28
2022-11-29T13:30:31.469Z,9.07
2022-11-29T13:33:19.831Z,8.63
2022-11-29T13:35:50.064Z,7.75
2022-11-29T13:38:30.189Z,12.02
2022-11-29T13:41:02.405Z,8.15
2022-11-29T13:43:40.927Z,7.10
2022-11-29T13:46:10.681Z,10.18
2022-11-29T13:48:52.643Z,7.10
2022-11-29T13:51:29.872Z,6.95
2022-11-29T13:53:57.564Z,7.82
2022-11-29T13:56:27.108Z,8.73
2022-11-29T13:58:54.217Z,9.07
2022-11-29T14:01:21.572Z,8.70
2022-11-29T14:04:08.240Z,9.65
2022-11-29T14:06:38.009Z,10.32
2022-11-29T14:09:20.660Z,14.55
2022-11-29T14:11:50.218Z,9.18
2022-11-29T14:14:16.617Z,11.10
2022-11-29T14:16:42.989Z,8.25
2022-11-29T14:19:09.790Z,10.40
2022-11-29T14:21:54.912Z,9.77
2022-11-29T14:24:36.583Z,12.37
2022-11-29T14:27:05.884Z,11.88
2022-11-29T14:29:47.851Z,11.73
2022-11-29T14:32:26.254Z,11.05
2022-11-29T14:35:11.127Z,12.70
2022-11-29T14:37:56.054Z,9.77
2022-11-29T14:40:34.848Z,14.10
2022-11-29T14:43:02.648Z,13.40
2022-11-29T14:45:30.418Z,10.15
2022-11-29T14:47:57.391Z,9.13
2022-11-29T14:50:29.913Z,10.95
2022-11-29T14:52:56.275Z,12.02
2022-11-29T14:55:25.584Z,13.95
2022-11-29T14:57:58.006Z,13.13
2022-11-29T15:00:26.389Z,10.98
2022-11-29T15:02:58.859Z,11.88
2022-11-29T15:05:31.476Z,12.88
2022-11-29T15:08:00.814Z,11.65
2022-11-29T15:10:29.779Z,13.02
2022-11-29T15:12:58.253Z,12.73
2022-11-29T15:16:04.308Z,11.40
2022-11-29T15:18:59.738Z,12.68
2022-11-29T15:21:29.091Z,13.38
2022-11-29T15:24:01.552Z,12.50
2022-11-29T15:26:27.922Z,13.82
2022-11-29T15:29:11.704Z,12.30
2022-11-29T15:31:43.142Z,12.23
2022-11-29T15:34:28.005Z,12.60
2022-11-29T15:36:54.308Z,12.57
2022-11-29T15:39:40.141Z,13.07
2022-11-29T15:42:10.617Z,14.88
2022-11-29T15:44:37.013Z,17.02
2022-11-29T15:47:21.850Z,12.55
2022-11-29T15:49:48.576Z,12.15
2022-11-29T15:52:28.633Z,14.45
2022-11-29T15:54:57.906Z,13.82
2022-11-29T15:57:26.373Z,11.45
2022-11-29T15:59:58.161Z,12.45
2022-11-29T16:02:31.974Z,13.10
2022-11-29T16:05:01.261Z,12.18
2022-11-29T16:07:32.075Z,12.20
2022-11-29T16:10:01.596Z,14.02
2022-11-29T16:12:27.950Z,13.27
2022-11-29T16:14:58.677Z,14.20
2022-11-29T16:17:26.651Z,13.50
2022-11-29T16:20:04.376Z,14.13
2022-11-29T16:22:32.355Z,13.35
2022-11-29T16:25:02.902Z,18.38
2022-11-29T16:27:31.086Z,15.95
2022-11-29T16:29:57.982Z,18.05
2022-11-29T16:32:30.459Z,17.48
2022-11-29T16:34:57.963Z,17.90
2022-11-29T16:37:25.501Z,17.70
2022-11-29T16:39:59.858Z,17.30
2022-11-29T16:42:30.485Z,16.67
2022-11-29T16:44:59.943Z,15.23
2022-11-29T16:47:27.647Z,16.42
2022-11-29T16:50:03.241Z,16.95
2022-11-29T16:54:56.113Z,18.73
2022-11-29T16:57:22.615Z,16.60
2022-11-29T16:59:49.255Z,17.80
2022-11-29T17:02:15.848Z,17.83
2022-11-29T17:04:43.654Z,19.08
2022-11-29T17:07:23.006Z,19.05
2022-11-29T17:09:49.423Z,17.60
2022-11-29T17:12:15.851Z,19.80
2022-11-29T17:14:42.592Z,18.13
2022-11-29T17:17:12.539Z,19.98
2022-11-29T17:19:38.831Z,20.08
2022-11-29T17:22:05.298Z,17.92
2022-11-29T17:24:31.632Z,21.73
2022-11-29T17:26:58.012Z,25.65
2022-11-29T17:29:24.417Z,18.33
2022-11-29T17:31:51.038Z,21.83
2022-11-29T17:34:17.498Z,21.92
2022-11-29T17:36:45.147Z,22.48
2022-11-29T17:39:11.515Z,22.65
2022-11-29T17:41:37.850Z,22.80
2022-11-29T17:44:04.295Z,23.27
2022-11-29T17:46:31.866Z,21.30
2022-11-29T17:48:59.328Z,23.27
2022-11-29T17:54:12.446Z,25.65
2022-11-29T17:56:38.761Z,26.77
2022-11-29T17:59:05.449Z,27.60
2022-11-29T18:01:33.174Z,33.17
2022-11-29T18:04:00.543Z,37.58
2022-11-29T18:06:28.455Z,31.65
2022-11-29T18:08:56.160Z,30.00
2022-11-29T18:11:24.782Z,27.38
2022-11-29T18:13:52.683Z,31.83
2022-11-29T18:16:20.455Z,32.38
2022-11-29T18:18:47.044Z,30.63
2022-11-29T18:21:13.703Z,31.08
2022-11-29T18:23:41.502Z,29.95
2022-11-29T18:26:10.576Z,26.00
2022-11-29T18:28:37.797Z,32.25
2022-11-29T18:31:12.514Z,41.70
2022-11-29T18:33:39.451Z,22.73
2022-11-29T18:36:09.559Z,32.30
2022-11-29T18:38:36.418Z,29.77
2022-11-29T18:41:07.490Z,32.60
2022-11-29T18:43:33.876Z,30.35
2022-11-29T18:46:06.015Z,28.92
2022-11-29T18:48:32.321Z,29.63
2022-11-29T18:51:02.664Z,28.85
2022-11-29T18:53:28.986Z,29.48
2022-11-29T18:56:01.591Z,29.70
2022-11-29T18:58:28.048Z,31.00
2022-11-29T19:00:54.417Z,34.10
2022-11-29T19:03:20.743Z,33.88
2022-11-29T19:05:54.297Z,33.03
2022-11-29T19:08:20.663Z,36.92
2022-11-29T19:10:47.041Z,29.42
2022-11-29T19:13:14.145Z,33.28
2022-11-29T19:15:40.532Z,29.45
2022-11-29T19:18:06.892Z,31.15
2022-11-29T19:20:34.334Z,28.55
2022-11-29T19:23:00.924Z,30.52
2022-11-29T19:25:27.294Z,29.42
2022-11-29T19:27:53.680Z,27.30
2022-11-29T19:30:20.034Z,31.33
2022-11-29T19:32:46.407Z,27.83
2022-11-29T19:35:12.711Z,27.38
2022-11-29T19:37:39.049Z,27.08
2022-11-29T19:40:05.771Z,30.65
2022-11-29T19:42:32.141Z,27.60
2022-11-29T19:45:16.362Z,27.58
2022-11-29T19:47:43.718Z,28.73
2022-11-29T19:50:10.113Z,30.95
2022-11-29T19:52:36.556Z,26.45
2022-11-29T19:55:02.929Z,33.03
2022-11-29T19:57:29.223Z,37.00
2022-11-29T19:59:55.607Z,49.53
2022-11-29T20:02:21.959Z,33.58
2022-11-29T20:04:49.684Z,29.95
2022-11-29T20:07:16.129Z,30.88
2022-11-29T20:09:42.593Z,29.77
2022-11-29T20:12:08.976Z,28.15
2022-11-29T20:14:35.382Z,32.58
2022-11-29T20:17:01.797Z,30.40
2022-11-29T20:19:28.161Z,28.20
2022-11-29T20:21:54.723Z,31.23
2022-11-29T20:24:21.125Z,30.85
2022-11-29T20:26:48.162Z,30.20
2022-11-29T20:29:14.672Z,29.50
2022-11-29T20:31:47.645Z,28.73
2022-11-29T20:34:16.461Z,29.70
2022-11-29T20:36:45.673Z,34.08
2022-11-29T20:39:15.086Z,34.30
2022-11-29T20:41:53.626Z,34.85
2022-11-29T20:44:21.406Z,30.77
2022-11-29T20:46:49.158Z,28.55
2022-11-29T20:49:17.255Z,29.40
2022-11-29T20:51:51.724Z,28.20
2022-11-29T20:54:19.113Z,31.88
2022-11-29T20:56:45.477Z,34.53
2022-11-29T20:59:11.940Z,31.70
2022-11-29T21:01:38.326Z,28.98
2022-11-29T21:04:04.694Z,26.55
2022-11-29T21:06:32.086Z,35.83
2022-11-29T21:08:58.422Z,30.85
2022-11-29T21:11:25.365Z,28.45
2022-11-29T21:13:51.923Z,29.10
2022-11-29T21:16:18.544Z,28.27
2022-11-29T21:18:45.150Z,30.48
2022-11-29T21:21:20.716Z,29.90
2022-11-29T21:26:18.635Z,33.05
2022-11-29T21:28:52.948Z,35.92
2022-11-29T21:31:19.497Z,29.08
2022-11-29T21:33:46.263Z,27.98
2022-11-29T21:36:12.894Z,27.63
2022-11-29T21:38:39.437Z,27.75
2022-11-29T21:41:05.891Z,28.38
2022-11-29T21:44:04.303Z,31.52
2022-11-29T21:46:18.762Z,28.40
2022-11-29T21:48:45.132Z,28.63
2022-11-29T21:51:11.990Z,39.00
2022-11-29T21:53:39.014Z,40.97
2022-11-29T21:56:06.692Z,31.77
2022-11-29T21:58:33.771Z,33.50
2022-11-29T22:01:09.169Z,34.70
2022-11-29T22:03:35.556Z,29.25
2022-11-29T22:06:03.132Z,27.80
2022-11-29T22:08:29.443Z,30.75
2022-11-29T22:11:02.881Z,27.20
2022-11-29T22:13:29.479Z,30.67
2022-11-29T22:16:03.081Z,31.45
2022-11-29T22:18:29.577Z,28.85
2022-11-29T22:20:56.202Z,27.48
2022-11-29T22:23:22.771Z,32.80
2022-11-29T22:25:49.075Z,31.10
2022-11-29T22:28:15.645Z,29.92
2022-11-29T22:30:41.938Z,28.08
2022-11-29T22:33:13.081Z,28.92
2022-11-29T22:35:43.426Z,31.08
2022-11-29T22:38:09.774Z,30.17
2022-11-29T22:40:36.080Z,31.77
2022-11-29T22:43:02.483Z,27.90
2022-11-29T22:45:28.846Z,33.45
2022-11-29T22:47:55.150Z,29.38
2022-11-29T22:50:21.475Z,28.30
2022-11-29T22:52:47.807Z,31.13
2022-11-29T22:55:14.214Z,32.45
2022-11-29T22:57:40.560Z,33.95
2022-11-29T23:00:07.267Z,29.38
2022-11-29T23:02:33.756Z,33.08
2022-11-29T23:05:00.182Z,31.25
2022-11-29T23:07:26.608Z,31.05
2022-11-29T23:09:55.021Z,30.10
2022-11-29T23:12:21.414Z,30.75
2022-11-29T23:14:52.966Z,31.67
2022-11-29T23:17:22.331Z,31.00
2022-11-29T23:19:48.792Z,32.85
2022-11-29T23:22:15.125Z,33.35
2022-11-29T23:24:42.703Z,34.63
2022-11-29T23:27:09.093Z,34.85
2022-11-29T23:29:35.445Z,33.05
2022-11-29T23:32:01.856Z,34.05
2022-11-29T23:34:31.025Z,32.30
2022-11-29T23:36:57.395Z,32.67
2022-11-29T23:39:23.938Z,32.75
2022-11-29T23:41:50.229Z,30.52
2022-11-29T23:44:16.621Z,31.60
2022-11-29T23:46:42.940Z,34.08
2022-11-29T23:49:09.321Z,32.05
2022-11-29T23:51:38.589Z,31.23
2022-11-29T23:54:04.970Z,33.63
2022-11-29T23:56:35.257Z,31.48
2022-11-29T23:59:02.161Z,30.20
